EmailTwitter


Observations de surface / Québec / CYHU (71371)

Régions: Québec | Canada | États-Unis | Europe | France | UK | Elsewhere
Station
Affichage
Infos & localisation pour CYHU (71371) | Aide pour décoder les METARs

Observations prises le 2017-04-27 à 01H00 UTC à MONTREAL/ST HUBE, QB (CYHU)

Etat du ciel: partiellement nuageux.

Température: 13.0 Celsius

Point de rosée: 12.0 Celsius

Humidité relative: 94%

Vents: Nord à 17 km/h ou 9 noeuds.

Pression au niveau moyen de la mer: 100.93 kilopascals.

Calage altimétrique: 100.91 kilopascals ou 29.80 pouces de mercure.

Visibilité horizontale: 9.00 milles terrestres ou 14.40 kilomètres.

Hauteur du plafond: 274 mètres ( 900 pieds ).

Observation METAR:

CYHU 270100Z AUTO 36009KT 9SM BKN009 13/12 A2980 RMK SLP093=